Dunn Center, North Dakota
Current Conditions -  °F | °C
As of 8:56 PM on Sunday 25 Jan 2015 (Local Time) from KDIK Reporting Station
Clear Clear  
Wind Chill: 34°   Ceiling: Unl
Heat Index: 42°   Visibility: 10mi
Dew Point: 34°   Wind: 17mph
Humidity: 73%   Direction: 280°W
Pressure: 29.81"   Gusts: NA
Location:  47.35°N, 102.62°W
Report Text: KDIK 260356Z AUTO 28015KT 10SM CLR 06/01 A2981 RMK AO2 SLP112 T00560011
Loading
Personal Weather Stations






























Interactive Weather Map New forecast layout! Learn more

10-Day Weather Forecast

Advertisements
Track Severe Weather on mobile